Time;durP1;ratioP1;P1;durP2;ratioP2;P2;SDS_P1;SDS_P2;PMS_P1;PMS_P2;Temp;Humidity;BMP_temperature;BMP_pressure;BME280_temperature;BME280_humidity;BME280_pressure;Samples;Min_cycle;Max_cycle;Signal;HPM_P1;HPM_P2
2021/09/11 00:01:53;;;;;;;16.82;10.85;;;;;;;23.53;47.34;100007.84;1838230;77;21171;-67
2021/09/11 00:04:19;;;;;;;13.30;11.10;;;;;;;23.51;47.36;100013.51;1827517;77;21341;-68
2021/09/11 00:06:46;;;;;;;12.45;10.45;;;;;;;23.49;47.34;100008.87;1827823;77;21533;-68
2021/09/11 00:10:47;;;;;;;14.33;10.60;;;;;;;23.51;47.36;100011.34;1867675;75;22632;-67
2021/09/11 00:13:13;;;;;;;13.55;10.68;;;;;;;23.46;47.38;100009.89;1823568;77;21564;-68
2021/09/11 00:15:43;;;;;;;18.55;10.90;;;;;;;23.45;47.36;100009.59;1839424;77;21180;-70
2021/09/11 00:18:11;;;;;;;14.35;10.90;;;;;;;23.44;47.37;100013.38;1836561;77;20913;-67
2021/09/11 00:20:39;;;;;;;14.55;10.45;;;;;;;23.44;47.40;100018.80;1835607;77;20981;-68
2021/09/11 00:23:09;;;;;;;14.15;10.82;;;;;;;23.42;47.36;100019.05;1839693;77;21048;-67
2021/09/11 00:25:36;;;;;;;12.88;10.80;;;;;;;23.42;47.42;100014.17;1838917;77;21467;-68
2021/09/11 00:28:03;;;;;;;12.25;10.38;;;;;;;23.40;47.47;100013.05;1829896;77;21447;-68
2021/09/11 00:30:29;;;;;;;14.95;11.30;;;;;;;23.39;47.44;100010.04;1851896;77;21029;-69
2021/09/11 00:32:56;;;;;;;14.60;9.73;;;;;;;23.37;47.43;100005.40;1839908;77;21504;-68
2021/09/11 00:35:22;;;;;;;15.38;11.20;;;;;;;23.36;47.47;100009.20;1840188;77;21029;-69
2021/09/11 00:37:49;;;;;;;13.62;11.38;;;;;;;23.35;47.49;100008.38;1831089;77;21026;-69
2021/09/11 00:40:17;;;;;;;14.00;12.35;;;;;;;23.33;47.51;100011.03;1834481;77;21787;-68
2021/09/11 00:42:47;;;;;;;13.72;11.05;;;;;;;23.32;47.50;100011.57;1828668;77;21028;-69
2021/09/11 00:45:17;;;;;;;16.67;11.90;;;;;;;23.31;47.55;100011.30;1832759;77;21086;-69
2021/09/11 00:47:44;;;;;;;14.23;10.88;;;;;;;23.31;47.59;100013.16;1844320;77;21053;-67
2021/09/11 00:50:11;;;;;;;13.95;10.58;;;;;;;23.29;47.62;100010.69;1826840;77;21038;-68
2021/09/11 00:52:40;;;;;;;14.58;10.98;;;;;;;23.28;47.64;100011.77;1838056;77;21197;-67
2021/09/11 00:55:08;;;;;;;14.28;10.95;;;;;;;23.26;47.74;100008.49;1793727;78;21040;-67
2021/09/11 00:57:37;;;;;;;13.15;10.63;;;;;;;23.26;47.77;100011.74;1790004;78;21556;-67
2021/09/11 01:00:06;;;;;;;13.55;11.28;;;;;;;23.24;47.85;100013.34;1791031;78;21065;-68
2021/09/11 01:02:33;;;;;;;13.45;11.55;;;;;;;23.24;47.89;100016.05;1769382;80;21518;-68
2021/09/11 01:05:00;;;;;;;17.80;11.15;;;;;;;23.24;47.96;100008.45;1789850;79;21990;-68
2021/09/11 01:07:29;;;;;;;13.98;12.07;;;;;;;23.24;48.01;100013.34;1789720;80;21021;-67
2021/09/11 01:09:55;;;;;;;14.78;12.05;;;;;;;23.23;48.02;100006.27;1753159;80;21060;-67
2021/09/11 01:12:24;;;;;;;14.65;11.05;;;;;;;23.23;48.10;100008.97;1740395;81;21546;-68
2021/09/11 01:14:54;;;;;;;14.80;11.88;;;;;;;23.22;48.19;100007.34;1753003;81;21034;-67
2021/09/11 01:17:22;;;;;;;14.83;11.78;;;;;;;23.21;48.17;100005.69;1768946;81;21074;-67
2021/09/11 01:19:48;;;;;;;12.98;11.08;;;;;;;23.22;48.20;99999.72;1766417;80;21525;-67
2021/09/11 01:22:15;;;;;;;15.93;11.70;;;;;;;23.21;48.26;100005.69;1752922;81;21062;-67
2021/09/11 01:24:57;;;;;;;16.32;13.03;;;;;;;23.21;48.27;100003.52;1766382;81;21629;-67
2021/09/11 01:27:24;;;;;;;13.43;10.78;;;;;;;23.20;48.33;100001.86;1739625;81;21037;-67
2021/09/11 01:30:05;;;;;;;16.40;11.97;;;;;;;23.20;48.38;99997.80;1763063;81;21161;-69
2021/09/11 01:32:31;;;;;;;18.82;13.28;;;;;;;23.19;48.40;99992.91;1768224;81;21085;-68
2021/09/11 01:34:58;;;;;;;14.85;12.18;;;;;;;23.19;48.43;99990.75;1768385;81;21561;-68
2021/09/11 01:37:25;;;;;;;14.87;13.30;;;;;;;23.18;48.52;99991.28;1770148;81;21023;-68
2021/09/11 01:39:52;;;;;;;14.45;12.20;;;;;;;23.17;48.54;99986.92;1768363;81;21029;-67
2021/09/11 01:42:22;;;;;;;16.00;13.20;;;;;;;23.16;48.57;99990.17;1739908;81;21148;-69
2021/09/11 01:44:59;;;;;;;15.05;12.37;;;;;;;23.17;48.63;99996.41;1752995;81;21056;-68
2021/09/11 01:47:26;;;;;;;15.88;12.60;;;;;;;23.15;48.67;99992.58;1757067;81;21504;-68
2021/09/11 01:49:52;;;;;;;14.87;13.32;;;;;;;23.15;48.72;99993.94;1763561;81;21571;-67
2021/09/11 01:52:20;;;;;;;15.72;11.90;;;;;;;23.14;48.79;99988.75;1763724;80;21064;-68
2021/09/11 01:54:47;;;;;;;15.93;13.75;;;;;;;23.14;48.84;99991.47;1751598;81;21143;-68
2021/09/11 01:57:13;;;;;;;18.80;12.90;;;;;;;23.13;48.93;99989.84;1743957;80;21068;-69
2021/09/11 01:59:41;;;;;;;15.23;12.90;;;;;;;23.12;49.00;99986.83;1770488;81;21008;-67
2021/09/11 02:02:08;;;;;;;16.07;14.10;;;;;;;23.12;49.05;99986.83;1769212;81;21520;-67
2021/09/11 02:04:34;;;;;;;15.48;13.70;;;;;;;23.11;49.08;99987.91;1758088;81;21096;-68
2021/09/11 02:07:04;;;;;;;16.25;14.55;;;;;;;23.10;49.13;99978.96;1765451;81;21461;-68
2021/09/11 02:09:33;;;;;;;17.45;13.88;;;;;;;23.10;49.15;99985.73;1770602;79;22071;-68
2021/09/11 02:12:01;;;;;;;16.93;13.72;;;;;;;23.10;49.16;99986.25;1776310;79;21013;-68
2021/09/11 02:14:28;;;;;;;16.35;14.00;;;;;;;23.11;49.22;99989.27;1787442;79;21050;-68
2021/09/11 02:16:56;;;;;;;17.50;14.58;;;;;;;23.09;49.28;99991.39;1769907;81;21006;-68
2021/09/11 02:19:24;;;;;;;17.17;14.78;;;;;;;23.08;49.34;99991.09;1773169;79;21563;-66
2021/09/11 02:21:52;;;;;;;21.57;16.93;;;;;;;23.08;49.38;99985.67;1760910;79;20990;-67
2021/09/11 02:24:19;;;;;;;22.45;15.18;;;;;;;23.07;49.42;99982.16;1780791;79;21108;-68
2021/09/11 02:26:46;;;;;;;14.98;13.38;;;;;;;23.08;49.43;99988.38;1770373;81;21018;-67
2021/09/11 02:29:14;;;;;;;17.07;14.35;;;;;;;23.07;49.48;99988.92;1765844;80;21081;-68
2021/09/11 02:31:41;;;;;;;18.23;13.83;;;;;;;23.07;49.56;99991.63;1770840;79;21091;-66
2021/09/11 02:34:08;;;;;;;17.25;14.50;;;;;;;23.06;49.63;99990.52;1770268;81;21038;-69
2021/09/11 02:36:34;;;;;;;16.00;14.45;;;;;;;23.06;49.65;99994.04;1747820;80;21074;-68
2021/09/11 02:39:01;;;;;;;16.35;13.45;;;;;;;23.06;49.71;99997.29;1770212;80;21078;-68
2021/09/11 02:41:29;;;;;;;18.32;14.45;;;;;;;23.07;49.73;99992.17;1770971;80;21033;-68
2021/09/11 02:43:56;;;;;;;17.48;14.55;;;;;;;23.04;49.81;99993.47;1779887;80;21212;-69
2021/09/11 02:46:22;;;;;;;15.83;14.00;;;;;;;23.03;49.86;99996.44;1770646;80;21030;-68
2021/09/11 02:48:50;;;;;;;16.97;14.53;;;;;;;23.03;49.92;99991.84;1770452;81;21022;-67
2021/09/11 02:51:16;;;;;;;19.20;14.98;;;;;;;23.01;49.94;99985.81;1770330;81;21109;-69
2021/09/11 02:53:44;;;;;;;15.20;13.60;;;;;;;23.02;49.96;99992.05;1770194;79;21074;-68
2021/09/11 02:56:10;;;;;;;16.57;14.73;;;;;;;23.02;50.00;99996.11;1777680;79;21696;-68
2021/09/11 02:58:37;;;;;;;17.40;14.85;;;;;;;23.01;50.01;99997.19;1778149;79;21084;-69
2021/09/11 03:01:05;;;;;;;21.87;15.32;;;;;;;23.01;50.05;99995.30;1780722;79;21033;-70
2021/09/11 03:03:33;;;;;;;19.05;16.80;;;;;;;23.01;50.05;99994.48;1781897;79;21088;-68
2021/09/11 03:06:02;;;;;;;20.55;17.80;;;;;;;23.02;50.08;99994.75;1776997;79;21696;-68
2021/09/11 03:08:31;;;;;;;21.95;17.77;;;;;;;23.01;50.07;99997.19;1774924;79;21142;-69
2021/09/11 03:10:58;;;;;;;30.52;17.55;;;;;;;23.00;50.09;99994.17;1806800;78;21135;-68
2021/09/11 03:13:25;;;;;;;21.10;17.73;;;;;;;22.99;50.10;99995.26;1812721;78;21000;-67
2021/09/11 03:15:51;;;;;;;23.18;17.62;;;;;;;22.98;50.14;99993.06;1792334;80;21483;-67
2021/09/11 03:18:18;;;;;;;23.45;19.67;;;;;;;22.95;50.17;99997.09;1791571;78;21530;-67
2021/09/11 03:20:46;;;;;;;22.67;18.23;;;;;;;22.96;50.16;99999.26;1768212;80;21373;-67
2021/09/11 03:23:14;;;;;;;21.68;17.55;;;;;;;22.95;50.16;99998.44;1785542;80;21029;-68
2021/09/11 03:25:41;;;;;;;22.58;17.95;;;;;;;22.93;50.16;99993.80;1806443;78;21037;-68
2021/09/11 03:28:08;;;;;;;22.00;17.92;;;;;;;22.93;50.17;100000.58;1824495;78;21556;-68
2021/09/11 03:30:36;;;;;;;20.72;17.52;;;;;;;22.92;50.12;99999.45;1815290;78;21071;-67
2021/09/11 03:33:03;;;;;;;24.40;18.15;;;;;;;22.92;50.13;100002.17;1827479;78;21121;-66
2021/09/11 03:35:29;;;;;;;21.45;17.15;;;;;;;22.91;50.13;99997.83;1827612;78;21548;-66
2021/09/11 03:37:56;;;;;;;23.40;17.82;;;;;;;22.90;50.13;99996.17;1804134;78;21022;-66
2021/09/11 03:40:24;;;;;;;20.72;17.70;;;;;;;22.89;50.13;100003.48;1815273;78;21013;-68
2021/09/11 03:42:50;;;;;;;20.00;17.00;;;;;;;22.89;50.07;100002.13;1803852;78;21038;-68
2021/09/11 03:45:17;;;;;;;19.48;16.65;;;;;;;22.89;50.09;100004.00;1814171;78;23276;-69
2021/09/11 03:47:45;;;;;;;59.48;50.80;;;;;;;22.88;50.06;100002.37;1820797;78;21209;-69
2021/09/11 03:50:13;;;;;;;34.45;26.90;;;;;;;22.87;50.04;100005.61;1798576;78;21034;-70
2021/09/11 03:52:40;;;;;;;25.95;20.37;;;;;;;22.87;50.02;100002.91;1795096;78;20998;-69
2021/09/11 03:55:08;;;;;;;23.00;18.85;;;;;;;22.87;50.02;100003.42;1794920;78;20987;-69
2021/09/11 03:57:36;;;;;;;22.20;18.20;;;;;;;22.86;50.04;100001.79;1795473;78;21149;-69
2021/09/11 04:00:04;;;;;;;23.77;18.52;;;;;;;22.86;50.02;99999.08;1795991;78;21009;-68
2021/09/11 04:02:33;;;;;;;23.02;18.62;;;;;;;22.85;50.00;100005.04;1807002;78;21029;-66
2021/09/11 04:04:59;;;;;;;22.50;17.92;;;;;;;22.85;50.00;100000.98;1811505;78;21009;-68
2021/09/11 04:07:26;;;;;;;22.85;18.15;;;;;;;22.84;50.03;100006.09;1795057;78;21034;-68
2021/09/11 04:09:52;;;;;;;22.37;19.57;;;;;;;22.85;50.04;100002.84;1795131;78;22390;-68
2021/09/11 04:12:19;;;;;;;23.55;19.02;;;;;;;22.85;50.05;100008.25;1797994;78;21050;-68
2021/09/11 04:14:46;;;;;;;24.47;19.75;;;;;;;22.84;50.08;100010.16;1798224;78;21037;-67
2021/09/11 04:17:12;;;;;;;29.63;21.52;;;;;;;22.83;50.10;100007.17;1818064;78;20993;-68
2021/09/11 04:19:40;;;;;;;24.77;19.92;;;;;;;22.83;50.13;100005.81;1830273;78;21075;-68
2021/09/11 04:22:07;;;;;;;23.65;21.10;;;;;;;22.83;50.12;100011.74;1811506;78;21135;-68
2021/09/11 04:24:34;;;;;;;96.20;80.35;;;;;;;22.84;50.13;100009.34;1803504;78;21053;-68
2021/09/11 04:27:01;;;;;;;43.00;35.10;;;;;;;22.83;50.15;100009.87;1809355;78;21013;-68
2021/09/11 04:29:27;;;;;;;27.82;24.23;;;;;;;22.83;50.13;100011.74;1811886;78;21177;-68
2021/09/11 04:31:54;;;;;;;27.22;21.52;;;;;;;22.83;50.15;100012.59;1817369;78;21040;-68
2021/09/11 04:34:20;;;;;;;25.20;20.37;;;;;;;22.85;50.17;100009.61;1809971;78;21789;-69
2021/09/11 04:36:46;;;;;;;24.43;20.12;;;;;;;22.85;50.14;100017.23;1818331;78;20991;-70
2021/09/11 04:39:15;;;;;;;25.15;19.05;;;;;;;22.88;50.14;100022.68;1814914;78;21066;-69
2021/09/11 04:41:43;;;;;;;23.35;18.77;;;;;;;22.88;50.15;100011.31;1811787;78;20965;-70
2021/09/11 04:44:09;;;;;;;22.02;18.57;;;;;;;22.88;50.15;100012.66;1831145;78;21706;-68
2021/09/11 04:46:37;;;;;;;23.90;18.05;;;;;;;22.90;50.19;100013.78;1802973;78;21050;-67
2021/09/11 04:49:04;;;;;;;28.05;20.17;;;;;;;22.91;50.17;100019.50;1798205;78;21014;-69
2021/09/11 04:51:30;;;;;;;24.45;19.17;;;;;;;22.91;50.17;100013.55;1798591;78;21070;-70
2021/09/11 04:53:57;;;;;;;22.32;17.98;;;;;;;22.92;50.19;100007.05;1818456;78;21057;-68
2021/09/11 04:56:25;;;;;;;22.52;18.62;;;;;;;22.94;50.17;100011.69;1798816;78;21015;-67
2021/09/11 04:58:52;;;;;;;20.55;17.80;;;;;;;22.97;50.16;100010.40;1771411;79;21066;-68
2021/09/11 05:01:18;;;;;;;22.93;18.25;;;;;;;22.99;50.16;100012.87;1801476;79;21508;-68
2021/09/11 05:03:45;;;;;;;21.35;17.37;;;;;;;23.01;50.17;100010.73;1801200;78;21002;-67
2021/09/11 05:06:12;;;;;;;23.02;17.23;;;;;;;23.02;50.13;100003.70;1810720;78;21060;-69
2021/09/11 05:08:39;;;;;;;26.90;17.87;;;;;;;23.04;50.16;100011.62;1811948;78;21032;-68
2021/09/11 05:11:07;;;;;;;22.10;17.10;;;;;;;23.07;50.22;100005.72;1786601;79;21147;-68
2021/09/11 05:13:35;;;;;;;19.77;17.62;;;;;;;23.08;50.19;100010.91;1772869;79;21038;-68
2021/09/11 05:16:02;;;;;;;21.73;17.12;;;;;;;23.10;50.15;100011.48;1743885;79;21040;-67
2021/09/11 05:18:28;;;;;;;21.12;17.40;;;;;;;23.12;50.15;100007.98;1757691;80;21046;-68
2021/09/11 05:20:56;;;;;;;20.00;16.23;;;;;;;23.15;50.19;100008.03;1783966;80;20994;-67
2021/09/11 05:23:25;;;;;;;20.02;15.93;;;;;;;23.16;50.28;100013.20;1761509;80;21059;-67
2021/09/11 05:25:53;;;;;;;22.52;17.27;;;;;;;23.19;50.29;100006.47;1760731;80;21066;-67
2021/09/11 05:28:19;;;;;;;20.85;16.90;;;;;;;23.21;50.26;100007.04;1765172;80;21032;-68
2021/09/11 05:30:46;;;;;;;18.67;15.40;;;;;;;23.23;50.24;100007.61;1770046;80;21085;-67
2021/09/11 05:33:12;;;;;;;18.45;15.65;;;;;;;23.25;50.24;100006.83;1783467;80;21025;-68
2021/09/11 05:35:39;;;;;;;20.10;15.48;;;;;;;23.26;50.25;100000.36;1767004;80;21117;-69
2021/09/11 05:38:07;;;;;;;19.50;16.67;;;;;;;23.29;50.22;100009.34;1777691;80;22048;-66
2021/09/11 05:40:34;;;;;;;19.60;16.87;;;;;;;23.31;50.21;100009.09;1785036;80;21046;-68
2021/09/11 05:43:01;;;;;;;19.15;15.85;;;;;;;23.31;50.19;100005.88;1760911;80;20991;-67
2021/09/11 05:45:27;;;;;;;16.23;14.53;;;;;;;23.34;50.20;100005.91;1770018;80;21011;-68
2021/09/11 05:47:55;;;;;;;21.23;16.15;;;;;;;;;;1776543;80;21066;-66
2021/09/11 05:50:23;;;;;;;19.00;15.45;;;;;;;23.40;50.20;100013.05;1760691;80;21628;-67
2021/09/11 05:52:50;;;;;;;20.25;14.87;;;;;;;23.42;50.18;100010.91;1760966;80;21130;-67
2021/09/11 05:55:16;;;;;;;17.57;15.48;;;;;;;23.44;50.17;100008.78;1766548;80;21031;-67
2021/09/11 05:57:43;;;;;;;17.70;15.68;;;;;;;23.45;50.14;100011.79;1777391;80;21065;-67
2021/09/11 06:00:11;;;;;;;18.25;15.20;;;;;;;23.47;50.16;100008.81;1760567;80;21159;-68
2021/09/11 06:02:37;;;;;;;19.50;15.78;;;;;;;23.49;50.17;100006.70;1761476;80;21050;-68
2021/09/11 06:05:06;;;;;;;17.17;15.35;;;;;;;23.52;50.19;100007.55;1767805;80;21085;-68
2021/09/11 06:07:33;;;;;;;17.42;14.83;;;;;;;23.54;50.14;100005.41;1785740;80;20993;-67
2021/09/11 06:10:00;;;;;;;16.67;14.78;;;;;;;23.57;50.19;100004.92;1774128;79;20991;-67
2021/09/11 06:12:26;;;;;;;16.00;14.28;;;;;;;23.61;50.11;100007.97;1766878;80;21161;-66
2021/09/11 06:14:53;;;;;;;16.12;14.28;;;;;;;23.63;50.06;100006.64;1762564;80;21007;-67
2021/09/11 06:17:19;;;;;;;19.80;15.32;;;;;;;23.67;49.94;100005.61;1760805;80;21612;-68
2021/09/11 06:19:47;;;;;;;16.55;14.80;;;;;;;23.68;49.86;100010.80;1760956;80;21621;-67
2021/09/11 06:22:14;;;;;;;21.30;15.20;;;;;;;23.71;49.95;100011.63;1773631;80;21051;-67
2021/09/11 06:24:41;;;;;;;18.67;16.02;;;;;;;23.73;49.83;100014.11;1762798;80;21159;-69
2021/09/11 06:27:08;;;;;;;17.20;15.35;;;;;;;23.75;49.78;100015.48;1760619;80;21065;-70
2021/09/11 06:29:34;;;;;;;18.73;14.73;;;;;;;23.79;49.60;100019.11;1786217;80;21072;-71
2021/09/11 06:32:01;;;;;;;16.40;14.78;;;;;;;23.80;49.49;100010.72;1767032;79;21043;-69
2021/09/11 06:34:27;;;;;;;17.05;13.68;;;;;;;23.82;49.35;100015.36;1762717;80;21515;-69
2021/09/11 06:36:54;;;;;;;16.95;14.35;;;;;;;23.85;49.26;100011.32;1770526;80;21791;-69
2021/09/11 06:39:20;;;;;;;17.62;14.10;;;;;;;23.87;49.29;100010.53;1764329;80;21648;-70
2021/09/11 06:41:47;;;;;;;15.90;14.23;;;;;;;23.90;49.00;100016.83;1783196;80;21082;-69
2021/09/11 06:44:14;;;;;;;18.37;14.23;;;;;;;23.92;48.86;100010.62;1764813;80;21010;-69
2021/09/11 06:46:41;;;;;;;17.87;12.93;;;;;;;23.92;48.76;100012.79;1774844;80;21085;-69
2021/09/11 06:49:08;;;;;;;16.57;14.33;;;;;;;23.95;48.81;100015.52;1770639;80;21204;-69
2021/09/11 06:51:35;;;;;;;15.95;13.85;;;;;;;23.97;48.58;100013.41;1760776;80;21039;-70
2021/09/11 06:54:01;;;;;;;19.95;14.35;;;;;;;23.98;48.69;100010.97;1776336;80;21094;-70
2021/09/11 06:56:27;;;;;;;14.55;12.07;;;;;;;24.02;48.74;100018.08;1771533;80;21008;-68
2021/09/11 06:58:54;;;;;;;22.48;13.05;;;;;;;24.05;48.62;100021.62;1760726;80;21752;-71
2021/09/11 07:01:23;;;;;;;16.12;13.00;;;;;;;24.08;48.45;100022.50;1770587;79;21498;-70
2021/09/11 07:03:50;;;;;;;17.05;12.18;;;;;;;24.09;48.33;100025.52;1775420;79;21607;-70
2021/09/11 07:06:16;;;;;;;18.98;12.88;;;;;;;24.11;48.29;100029.61;1782609;80;21041;-70
2021/09/11 07:08:44;;;;;;;19.25;13.45;;;;;;;24.14;48.25;100026.41;1762844;80;21090;-69
2021/09/11 07:11:12;;;;;;;18.92;13.15;;;;;;;24.19;48.16;100031.61;1776265;80;21133;-71
2021/09/11 07:13:41;;;;;;;15.58;12.63;;;;;;;24.21;48.07;100026.20;1774623;79;21110;-73
2021/09/11 07:16:07;;;;;;;14.40;12.33;;;;;;;24.23;47.94;100027.32;1780947;80;21060;-70
2021/09/11 07:18:34;;;;;;;16.35;13.75;;;;;;;24.26;47.90;100020.02;1771886;80;20972;-69
2021/09/11 07:21:02;;;;;;;19.48;12.75;;;;;;;24.27;47.88;100021.13;1765214;80;21076;-69
2021/09/11 07:23:29;;;;;;;15.10;12.10;;;;;;;24.31;47.71;100022.80;1773082;80;21073;-70
2021/09/11 07:25:56;;;;;;;14.18;11.95;;;;;;;24.33;47.73;100025.54;1766590;79;21040;-68
2021/09/11 07:28:22;;;;;;;15.45;11.78;;;;;;;24.35;47.59;100018.50;1762964;80;21002;-69
2021/09/11 07:30:49;;;;;;;17.48;12.65;;;;;;;24.39;47.49;100021.54;1781036;80;21025;-70
2021/09/11 07:33:15;;;;;;;15.28;11.48;;;;;;;24.41;47.33;100015.32;1783963;79;21105;-69
2021/09/11 07:35:42;;;;;;;15.93;12.63;;;;;;;24.43;47.23;100017.24;1787272;80;21084;-71
2021/09/11 07:38:11;;;;;;;15.13;12.33;;;;;;;24.45;47.10;100015.91;1784882;80;21140;-73
2021/09/11 07:40:38;;;;;;;16.80;12.95;;;;;;;24.46;46.93;100021.64;1751119;80;21004;-71
2021/09/11 07:43:05;;;;;;;17.82;12.95;;;;;;;24.49;46.91;100019.78;1779417;80;21080;-69
2021/09/11 07:45:32;;;;;;;19.12;12.05;;;;;;;24.52;46.94;100017.12;1771760;80;21474;-71
2021/09/11 07:47:58;;;;;;;14.83;13.20;;;;;;;24.53;46.99;100019.59;1784545;80;21040;-70
2021/09/11 07:50:28;;;;;;;15.70;13.25;;;;;;;24.55;46.89;100013.91;1769696;80;21154;-70
2021/09/11 07:52:55;;;;;;;16.60;13.40;;;;;;;24.58;46.91;100022.08;1780846;80;21013;-70
2021/09/11 07:55:21;;;;;;;15.35;13.40;;;;;;;24.60;46.90;100023.45;1777884;80;21050;-70
2021/09/11 07:57:48;;;;;;;20.35;13.05;;;;;;;24.62;46.90;100025.38;1770966;80;20994;-69
2021/09/11 08:00:16;;;;;;;16.45;13.45;;;;;;;24.65;47.01;100019.99;1781036;80;21982;-69
2021/09/11 08:02:43;;;;;;;24.55;16.57;;;;;;;24.67;47.10;100022.73;1776175;80;21217;-71
2021/09/11 08:05:10;;;;;;;20.80;14.85;;;;;;;24.69;47.38;100021.13;1772491;80;21048;-69
2021/09/11 08:07:37;;;;;;;21.93;14.60;;;;;;;24.72;47.29;100020.59;1760633;80;21059;-71
2021/09/11 08:10:05;;;;;;;22.10;14.93;;;;;;;24.76;47.31;100024.98;1760643;80;21015;-74
2021/09/11 08:12:31;;;;;;;27.90;14.25;;;;;;;24.77;47.49;100016.59;1770046;79;21136;-66
2021/09/11 08:14:59;;;;;;;21.85;14.70;;;;;;;24.81;47.67;100010.92;1789285;79;21146;-67
2021/09/11 08:17:25;;;;;;;20.48;14.68;;;;;;;24.84;47.51;100015.01;1794734;79;21576;-70
2021/09/11 08:19:53;;;;;;;27.17;15.32;;;;;;;24.87;47.85;100012.61;1795524;79;21038;-68
2021/09/11 08:22:19;;;;;;;25.97;16.52;;;;;;;24.91;48.37;100011.02;1811092;79;21017;-68
2021/09/11 08:24:45;;;;;;;36.77;17.15;;;;;;;24.97;48.83;100004.28;1807985;79;21535;-69
2021/09/11 08:27:12;;;;;;;23.10;16.02;;;;;;;25.00;49.06;100001.06;1788767;79;21588;-69
2021/09/11 08:29:38;;;;;;;17.02;14.68;;;;;;;25.03;48.36;100001.34;1798204;79;21334;-68
2021/09/11 08:32:05;;;;;;;15.85;13.88;;;;;;;25.08;47.68;100004.66;1784653;79;21031;-69
2021/09/11 08:34:32;;;;;;;14.93;13.38;;;;;;;25.11;46.13;100004.97;1773537;79;21055;-69
2021/09/11 08:37:00;;;;;;;16.57;13.62;;;;;;;25.15;45.19;99991.69;1788600;79;21030;-69
2021/09/11 08:39:28;;;;;;;16.05;14.23;;;;;;;25.19;45.03;100000.13;1784764;79;21495;-69
2021/09/11 08:41:56;;;;;;;14.38;12.65;;;;;;;25.21;44.96;99990.65;1807385;79;20995;-68
2021/09/11 08:44:24;;;;;;;17.40;13.08;;;;;;;25.24;44.68;99995.58;1784335;79;21064;-68
2021/09/11 08:46:54;;;;;;;16.93;12.63;;;;;;;25.27;44.12;99992.91;1782132;80;21054;-68
2021/09/11 08:49:21;;;;;;;19.10;12.82;;;;;;;25.31;43.96;99991.30;1769864;80;21145;-69
2021/09/11 08:51:47;;;;;;;16.82;12.73;;;;;;;25.35;44.03;99979.38;1773129;80;21771;-69
2021/09/11 08:54:18;;;;;;;15.75;12.13;;;;;;;25.39;43.74;99985.92;1773105;80;21025;-69
2021/09/11 08:56:46;;;;;;;14.38;12.40;;;;;;;25.42;43.35;99990.31;1783583;80;21006;-68
2021/09/11 08:59:16;;;;;;;14.35;12.95;;;;;;;25.48;43.55;99987.09;1784908;80;21054;-68
2021/09/11 09:01:42;;;;;;;16.75;12.85;;;;;;;25.53;43.64;99990.38;1784783;80;21679;-68
2021/09/11 09:04:09;;;;;;;13.48;11.97;;;;;;;25.57;42.89;99983.33;1782725;80;21106;-68
2021/09/11 09:06:36;;;;;;;14.63;11.43;;;;;;;25.60;42.83;99982.27;1751025;81;21077;-70
2021/09/11 09:09:12;;;;;;;13.58;12.05;;;;;;;25.64;42.60;99980.66;1784657;79;21078;-69
2021/09/11 09:11:42;;;;;;;13.80;12.53;;;;;;;25.68;42.04;99981.77;1785274;79;21081;-68
2021/09/11 09:14:15;;;;;;;13.62;11.85;;;;;;;25.74;42.09;99976.38;1780668;79;21031;-68
2021/09/11 09:16:44;;;;;;;;;;;;;;;25.79;42.26;99975.05;1782126;79;21127;-68
2021/09/11 09:19:23;;;;;;;11.93;10.70;;;;;;;25.84;42.10;99972.34;1778558;80;20272;-68
2021/09/11 09:21:54;;;;;;;13.98;11.75;;;;;;;25.86;42.51;99968.81;1779049;79;21540;-68
2021/09/11 09:24:38;;;;;;;13.30;11.75;;;;;;;25.91;42.47;99966.16;1780292;79;21114;-69
2021/09/11 09:27:07;;;;;;;13.68;12.05;;;;;;;25.95;42.61;99967.27;1809672;79;21097;-70
2021/09/11 09:29:38;;;;;;;13.03;11.83;;;;;;;26.01;42.06;99962.66;1809098;79;21521;-70
2021/09/11 09:32:06;;;;;;;13.25;11.33;;;;;;;26.07;42.31;99963.77;1810791;79;21053;-68
2021/09/11 09:34:39;;;;;;;18.32;12.88;;;;;;;26.12;41.78;99965.72;1786848;79;21040;-69
2021/09/11 09:37:10;;;;;;;16.55;12.58;;;;;;;26.18;41.94;99966.56;1779297;79;21057;-69
2021/09/11 09:39:42;;;;;;;14.28;11.55;;;;;;;26.23;42.12;99957.03;1801363;79;21416;-69
2021/09/11 09:42:16;;;;;;;12.82;11.57;;;;;;;26.27;41.94;99960.33;1778092;79;21110;-70
2021/09/11 09:44:50;;;;;;;13.90;12.45;;;;;;;26.33;41.26;99960.33;1752352;79;21046;-70
2021/09/11 09:47:25;;;;;;;13.72;12.33;;;;;;;26.39;41.01;99958.73;1810666;79;21439;-67
2021/09/11 09:50:11;;;;;;;13.05;11.22;;;;;;;26.46;40.69;99956.58;1785991;79;21007;-71
2021/09/11 09:52:40;;;;;;;13.95;11.68;;;;;;;26.55;40.64;99957.41;1794248;79;21001;-68
2021/09/11 09:55:08;;;;;;;12.75;11.35;;;;;;;26.59;40.68;99957.98;1788375;79;21755;-69
2021/09/11 09:57:36;;;;;;;11.55;10.08;;;;;;;26.64;40.96;99957.20;1810879;79;21014;-69
2021/09/11 10:00:04;;;;;;;11.43;9.75;;;;;;;26.70;40.68;99960.20;1811007;79;21482;-68
2021/09/11 10:02:31;;;;;;;13.93;10.30;;;;;;;26.76;40.46;99958.30;1809679;79;21103;-69
2021/09/11 10:04:58;;;;;;;9.70;8.68;;;;;;;26.81;39.75;99954.20;1785644;79;21570;-68
2021/09/11 10:07:24;;;;;;;11.68;9.75;;;;;;;26.87;39.63;99953.14;1803610;79;22054;-69
2021/09/11 10:09:50;;;;;;;10.72;9.35;;;;;;;26.92;39.29;99954.49;1810288;79;21663;-67
2021/09/11 10:12:30;;;;;;;9.60;8.30;;;;;;;26.97;38.88;99955.87;1788862;79;21352;-69
2021/09/11 10:15:24;;;;;;;12.63;9.10;;;;;;;27.05;38.07;99947.70;1797397;79;21219;-68
2021/09/11 10:17:52;;;;;;;11.78;8.93;;;;;;;27.11;37.97;99952.05;1768507;79;21055;-69
2021/09/11 10:20:19;;;;;;;9.90;8.73;;;;;;;27.16;38.14;99944.41;1795578;79;21890;-68
2021/09/11 10:23:07;;;;;;;10.30;8.75;;;;;;;27.21;37.87;99945.77;1778763;79;21047;-69
2021/09/11 10:25:47;;;;;;;9.95;8.95;;;;;;;27.25;37.75;99938.71;1779008;79;21087;-67
2021/09/11 10:28:21;;;;;;;8.68;7.78;;;;;;;27.30;37.49;99937.35;1809209;79;20978;-68
2021/09/11 10:31:08;;;;;;;10.48;9.38;;;;;;;27.37;37.85;99934.33;1810869;79;20995;-69
2021/09/11 10:33:54;;;;;;;9.93;9.03;;;;;;;27.43;38.05;99935.98;1800129;79;21838;-68
2021/09/11 10:36:25;;;;;;;11.22;9.83;;;;;;;27.48;38.71;99932.41;1773693;79;21021;-68
2021/09/11 10:38:53;;;;;;;10.95;9.58;;;;;;;27.53;39.05;99934.59;1796814;79;21035;-68
2021/09/11 10:41:19;;;;;;;14.33;10.13;;;;;;;27.58;39.12;99929.66;1742361;79;21047;-69
2021/09/11 10:44:07;;;;;;;13.83;10.32;;;;;;;27.62;39.02;99922.02;1779466;79;20980;-69
2021/09/11 10:46:51;;;;;;;13.22;10.10;;;;;;;27.68;38.82;99920.62;1785812;79;21449;-68
2021/09/11 10:49:34;;;;;;;12.37;10.95;;;;;;;27.74;38.73;99918.14;1778994;79;21603;-69
2021/09/11 10:52:05;;;;;;;14.18;10.85;;;;;;;27.79;38.54;99916.77;1780907;79;21054;-70
2021/09/11 10:54:43;;;;;;;12.10;10.90;;;;;;;27.87;38.38;99914.83;1792356;79;21121;-70
2021/09/11 10:57:18;;;;;;;11.60;10.45;;;;;;;27.94;38.75;99913.20;1778859;79;21090;-69
2021/09/11 10:59:46;;;;;;;12.43;11.12;;;;;;;28.00;39.20;99910.72;1778821;79;21135;-70
2021/09/11 11:02:37;;;;;;;15.28;11.53;;;;;;;28.06;39.16;99906.86;1778894;79;21102;-68
2021/09/11 11:05:08;;;;;;;11.60;10.40;;;;;;;28.11;39.02;99901.39;1778822;79;21585;-68
2021/09/11 11:07:42;;;;;;;12.33;10.95;;;;;;;28.17;39.18;99902.18;1783689;79;21545;-68
2021/09/11 11:10:15;;;;;;;12.05;10.85;;;;;;;28.22;39.12;99898.03;1792895;79;21019;-67
2021/09/11 11:12:45;;;;;;;11.88;10.58;;;;;;;28.28;39.17;99895.57;1778674;79;21574;-68
2021/09/11 11:15:16;;;;;;;13.32;10.93;;;;;;;28.35;39.39;99897.42;1778994;80;21074;-69
2021/09/11 11:17:45;;;;;;;11.22;10.08;;;;;;;28.41;39.48;99893.58;1777486;79;21550;-70
2021/09/11 11:20:14;;;;;;;14.05;11.25;;;;;;;28.48;39.48;99892.44;1778806;79;21538;-68
2021/09/11 11:22:43;;;;;;;13.15;11.78;;;;;;;28.54;39.32;99885.87;1778860;79;21043;-70